Airfield :
LOGIN :

Register | Disclaimer

   EN    FR    IT 

 










Legend :    VFR   Marginal VFR   IFR   Intensive IFR   Very Intensive IFR
Visi :
Ceiling :
>= 8 km
>= 3000ft
5 to 8 km
1000 to 3000 ft
1500m to 5 km
500 to 1000 ft
800 to 1500m
200 to 500 ft
< 800m
< 200 ft
Symbols :   Thunderstorms  Fog  Heavy snow  Heavy precipitations  Wind > 20 kt
SIGMETs :     Misc.  Thunderstorms  Icing  Turbulence  Mountain Waves  Volcanic Ashes







- Airport Elevation : 286 ft
- IATA code : FFD


EGVA - RAF Fairford

CURRENT METAR :
  • 262047Z AUTO 24005KT 3600 M SCT120 08/03 A2996 RMK AO2 VIS 3600V8000 SLPNO $

EXPIRED METARs :
  • 262037Z AUTO 24007KT 6000 M SCT120 08/03 A2996 RMK AO2 SLPNO $
  • 262032Z AUTO 23005KT 2200 M FEW120 08/03 A2996 RMK AO2 VIS 1200V2200 SLPNO $
  • 262023Z AUTO 22005KT 1400 R27/0800VP1500 M CLR 08/03 A2996 RMK AO2 VIS 1400V3200 SLPNO $
  • 262015Z AUTO 26007KT 2800 M FEW200 08/03 A2996 RMK AO2 VIS 2800V8000 SLPNO $
  • 262005Z AUTO 27008KT 6000 M CLR 08/03 A2996 RMK AO2 SLP150 $
  • 261955Z AUTO 28007KT 2400 M CLR 08/02 A2996 RMK AO2 VIS 2200V6000 SLP150 $
  • 261945Z AUTO 26006KT 6000 M CLR 08/02 A2996 RMK AO2 SLP150 $
  • 261940Z AUTO 25006KT 3000 M CLR 08/02 A2996 RMK AO2 VIS 2200V5000 SLPNO $
  • 261935Z AUTO 26007KT 2400 M CLR 08/02 A2996 RMK AO2 VIS 2200V6000 SLPNO $
  • 261925Z AUTO 25007KT 6000 M CLR 09/02 A2996 RMK AO2 SLPNO $
  • 261920Z AUTO 26009KT 1800 M CLR 09/02 A2996 RMK AO2 VIS 1400V3000 SLPNO $
  • 261915Z AUTO 26010KT 2000 M CLR 09/02 A2996 RMK AO2 VIS 1600V3000 SLPNO $
  • 261905Z AUTO 26014KT 2400 M CLR 10/02 A2996 RMK AO2 VIS 0800V2600 SLPNO $
  • 261901Z AUTO 26014KT 1200 R27/0800VP1500 M CLR 10/02 A2996 RMK AO2 VIS 0800V3200 SLPNO $
  • 261855Z AUTO 26012KT 1600 R27/0800VP1500 M CLR 10/02 A2996 RMK AO2 VIS 1400V4000 SLPNO $
  • 261851Z AUTO 25013G17KT 3200 M CLR 10/02 A2996 RMK AO2 VIS 2200V4000 SLPNO $
  • 261846Z AUTO 26012KT 3000 M CLR 10/01 A2996 RMK AO2 VIS 2200V6000 SLPNO $
  • 261831Z AUTO 25010KT 6000 M CLR 10/01 A2996 RMK AO2 SLPNO $
  • 261821Z AUTO 25013G18KT 3200 M CLR 11/01 A2996 RMK AO2 VIS 3000V5000 SLPNO $
  • 261816Z AUTO 25010KT 4400 M CLR 11/01 A2996 RMK AO2 VIS 1400V4400 SLPNO $
  • 261807Z AUTO 25013KT 1400 R27/0650VP1500 M CLR 11/02 A2996 RMK AO2 VIS 1400V9000 SLPNO $
  • 261756Z AUTO 25012KT 9000 M CLR 11/02 A2996 RMK AO2 SLPNO 60000 T01080019 10133 20108 $
  • 261755Z AUTO 25013KT 8000 M CLR 11/02 A2996 RMK AO2 SLPNO $
  • 261750Z AUTO 25013KT 3600 M CLR 11/02 A2996 RMK AO2 VIS 3600V5000 SLPNO $

Expired Forecast.
No reported NOTAMs for that airfield.



MET'MAP, your aeronautical weather chart ! - Copyright ORBIFLY December 2007 - Disclaimer

ORBIFLY MET'MAP TEAM :

Programming & Development : Alexandra Zaïnal
Concept & Development : Baudouin d'Aumeries
Co-Development & Prog : Marc-Olivier Méhu
Technical & hardware support : Manuel Goepfert

Contact : metmap@orbifly.com




SOURCES & CREDITS :

   NOAA